Terminal Aerodrome Forecast
Issued by NWS Lake Charles, LA

Home | Current Version | Previous Version | Text Only | Print | Product List | Glossary On
Versions: 1 2 3 4 5 6 7 8 9 10 11 12 13 14 15 16 17 18 19 20 21 22 23 24 25 26 27 28 29 30 31 32 33 34 35 36 37 38 39 40 41 42 43 44 45 46 47 48 49 50
000
FTUS44 KLCH 181859 AAB
TAFBPT
TAF AMD
KBPT 181859Z 1819/1918 16009KT P6SM OVC009
     FM182100 17014G19KT P6SM OVC015
     FM190100 18014G19KT 6SM BR OVC007
     FM190600 18015G21KT 4SM -DZ BR OVC004
      TEMPO 1906/1910 2SM TSRA SCT004 BKN012CB
     FM191300 29016G22KT P6SM VCSH SCT006 OVC010=

USA.gov is the U.S. government's official web portal to all federal, state and local government web resources and services.